• Join FlightAware (Why Join?)
  • Login
  • US Flag 
09:03PM EDT


 

Airport Tracker/Info


-or-


 

Live Flight TrackerFlight Track Log ✈ THY2414 ✈ 08-May-2012 ✈ LTBA / IST - LTAI / AYT

Flight Track Log - Related Links

Times and Time Zones

All times are in EDT time to prevent confusion due to time zone crossing. See the THY2414 flight status page for this flight to view local times or setup timezone preferences in your user account.

Time Position Orientation Groundspeed Altitude Reporting Facility
EDT Latitude Longitude Course Direction KTS MPH feet Rate Location/Type
05:11AM 40.4778 29.0759 159° South  Level Estimated
05:12AM 40.3876 29.1216 159° South  Level Estimated
05:13AM 40.2973 29.1671 159° South  Level Estimated
05:14AM 40.2070 29.2125 159° South  Level Estimated
05:15AM 40.1167 29.2578 159° South  Level Estimated
05:16AM 40.0264 29.3029 159° South  Level Estimated
05:17AM 39.9361 29.3480 159° South  Level Estimated
05:18AM 39.8457 29.3929 159° South  Level Estimated
05:19AM 39.7554 29.4377 159° South  Level Estimated
05:20AM 39.6650 29.4824 159° South  Level Estimated
05:21AM 39.5746 29.5270 159° South  Level Estimated
05:22AM 39.4841 29.5714 159° South  Level Estimated
05:23AM 39.3937 29.6158 159° South  Level Estimated
05:24AM 39.3032 29.6600 159° South  Level Estimated
05:25AM 39.2128 29.7041 159° South  Level Estimated
05:26AM 39.1223 29.7481 159° South  Level Estimated
05:27AM 39.0318 29.7920 159° South  Level Estimated
05:28AM 38.9412 29.8358 159° South  Level Estimated
05:29AM 38.8507 29.8794 159° South  Level Estimated
05:30AM 38.7602 29.9230 159° South  Level Estimated
05:31AM 38.6696 29.9664 159° South  Level Estimated
05:32AM 38.5790 30.0097 160° South  Level Estimated
05:33AM 38.4884 30.0530 160° South  Level Estimated
05:34AM 38.3978 30.0961 160° South  Level Estimated
05:35AM 38.3072 30.1391 160° South  Level Estimated
05:36AM 38.2165 30.1820 160° South  Level Estimated
05:37AM 38.1258 30.2248 160° South  Level Estimated
05:38AM 38.0351 30.2674 160° South  Level Estimated
05:39AM 37.9445 30.3100 160° South  Level Estimated
05:40AM 37.8537 30.3525 160° South  Level Estimated
05:41AM 37.7630 30.3949 160° South  Level Estimated
05:42AM 37.6723 30.4371 160° South  Level Estimated
05:43AM 37.5815 30.4793 160° South  Level Estimated
05:44AM 37.4907 30.5213 160° South  Level Estimated
05:45AM 37.3999 30.5633 160° South  Level Estimated
05:46AM 37.3092 30.6052 160° South  Level Estimated
05:47AM 37.2183 30.6469 160° South  Level Estimated
05:48AM 37.1275 30.6886 160° South  Level Estimated
05:49AM 37.0367 30.7301 160° South  Level Estimated
05:50AM 36.9458 30.7716 160° South  Level Estimated
05:51AM 36.8549 30.8129 340° North  Level Estimated
05:52AM 36.9458 30.7716 160° South  Level Estimated
05:53AM 36.8549 30.8129 340° North  Level Estimated
05:54AM 36.9458 30.7716 160° South  Level Estimated
05:55AM 36.8549 30.8129 340° North  Level Estimated
05:56AM 36.9458 30.7716 160° South  Level Estimated
05:57AM 36.8549 30.8129 340° North  Level Estimated
05:58AM 36.9458 30.7716 160° South  Level Estimated
05:59AM 36.8549 30.8129 340° North  Level Estimated
06:00AM 36.9458 30.7716 160° South  Level Estimated
06:01AM 36.8549 30.8129 340° North  Level Estimated
06:02AM 36.9458 30.7716 160° South  Level Estimated
06:03AM 36.8549 30.8129 340° North  Level Estimated
06:04AM 36.9458 30.7716 160° South  Level Estimated
06:05AM 36.8549 30.8129 340° North  Level Estimated
06:06AM 36.9458 30.7716 340° North  Level Estimated